Phoenix, Oregon
Current Conditions -  °F | °C
As of 10:53 PM on Wednesday 26 Nov 2014 (Local Time) from KMFR Reporting Station
Haze Haze  
Wind Chill: 47°   Ceiling: 400
Heat Index: 47°   Visibility: 6mi
Dew Point: 44°   Wind: 0mph
Humidity: 90%   Direction: NA
Pressure: 30.16"   Gusts: NA
Location:  42.28°N, 122.82°W
Report Text: KMFR 270653Z AUTO 00000KT 6SM BR OVC004 08/07 A3016 RMK AO2 SLP216 T00830067 $
Loading
Personal Weather Stations






























Interactive Weather Map New forecast layout! Learn more

10-Day Weather Forecast

Advertisements
Track Severe Weather on mobile